メインページ
METAR-TAF:

METAR-TAF

空港 :

ポートオブスペイン, Trinidad, トリニダード・トバゴ

緯度: 10-37N, 経度: 061-21W, 海抜: 12m

現時点の気象観測

当レポートは55分前の11:00(UTC)に作成
東/南東の風 4kt
気温 26°C
湿度 84%
気圧 1013 hPa
視程10km以上
高度1800ftの雲はほとんどない

METAR: TTPP 231100Z 12004KT 9999 FEW018 26/23 Q1013 NOSIG METAR

時間: 07:55 (11:55 UTC)

予報

当レポートは1時間55分前の10:00(UTC)に作成
予報は23日の 12時(UTC)から 24日の 12時(UTC)まで有効
の風 12kt
視程10km以上
高度1800ftの雲はほとんどない

TAF: TTPP 231000Z 2312/2412 10012KT 9999 FEW018

4,000以上の空港の気象観測と天気予報(METAR報とTAF報)

利用可能な観測所は地図上に黄色い丸と赤い丸で示す。

丸の上にカーソルを重ねると観測所名を参照できる。

次にクリックすると気象観測と天気予報を参照できる。

マップの切り替え:黒色「×」印の緑ボタンをクリックして拡大、「-」印の緑ボタンをクリックして縮小、緑色の三角印をクリックして隣りの地図に切り替え


METAR-TAF: